Time;durP1;ratioP1;P1;durP2;ratioP2;P2;SDS_P1;SDS_P2;PMS_P1;PMS_P2;Temp;Humidity;BMP_temperature;BMP_pressure;BME280_temperature;BME280_humidity;BME280_pressure;Samples;Min_cycle;Max_cycle;Signal;HPM_P1;HPM_P2
2021/04/19 00:02:20;;;;;;;43.53;22.60;;;;;;;6.31;73.14;93763.63;5011916;28;20068;-68
2021/04/19 00:04:46;;;;;;;51.63;26.00;;;;;;;6.28;73.29;93762.34;5011757;28;20064;-68
2021/04/19 00:07:11;;;;;;;45.95;23.92;;;;;;;6.10;73.80;93756.00;4993645;28;20050;-68
2021/04/19 00:09:37;;;;;;;47.92;23.13;;;;;;;6.15;73.60;93760.44;5009904;28;20160;-69
2021/04/19 00:12:04;;;;;;;41.28;22.80;;;;;;;6.16;73.35;93762.78;5013026;28;20037;-68
2021/04/19 00:14:30;;;;;;;43.78;23.55;;;;;;;6.15;72.88;93755.16;5012744;28;20054;-69
2021/04/19 00:16:55;;;;;;;50.08;24.00;;;;;;;6.10;73.22;93750.69;5012889;28;20095;-70
2021/04/19 00:19:20;;;;;;;43.08;21.85;;;;;;;6.10;73.37;93758.63;4998084;28;20100;-68
2021/04/19 00:21:46;;;;;;;43.17;24.13;;;;;;;6.07;73.90;93759.22;4993166;28;20026;-68
2021/04/19 00:24:11;;;;;;;43.65;23.52;;;;;;;6.10;74.13;93752.56;4993633;28;20053;-69
2021/04/19 00:26:37;;;;;;;37.70;22.30;;;;;;;6.17;74.17;93750.34;5008089;28;20065;-68
2021/04/19 00:29:03;;;;;;;45.45;23.85;;;;;;;6.23;73.95;93757.16;4993126;28;20509;-69
2021/04/19 00:31:29;;;;;;;43.80;23.90;;;;;;;6.29;73.66;93752.53;4991915;28;20029;-68
2021/04/19 00:33:54;;;;;;;39.67;22.13;;;;;;;6.29;73.61;93748.06;4992626;28;20026;-69
2021/04/19 00:36:20;;;;;;;39.55;21.85;;;;;;;6.29;73.66;93736.66;5001697;28;20091;-69
2021/04/19 00:38:45;;;;;;;37.13;20.98;;;;;;;6.29;73.60;93731.38;5012702;28;20022;-69
2021/04/19 00:41:11;;;;;;;40.95;21.73;;;;;;;6.31;73.45;93732.66;5011191;28;20022;-68
2021/04/19 00:43:40;;;;;;;40.55;20.33;;;;;;;6.36;73.22;93724.63;5000339;28;20022;-69
2021/04/19 00:46:06;;;;;;;47.30;22.13;;;;;;;6.34;72.98;93715.41;4991267;28;20046;-68
2021/04/19 00:48:33;;;;;;;44.58;21.88;;;;;;;6.35;72.88;93711.69;4992792;28;20113;-69
2021/04/19 00:50:59;;;;;;;50.20;23.50;;;;;;;6.33;73.19;93727.88;4991356;28;20022;-69
2021/04/19 00:53:27;;;;;;;41.88;22.70;;;;;;;6.32;73.06;93723.63;4992887;28;20508;-69
2021/04/19 00:55:54;;;;;;;45.33;21.88;;;;;;;6.35;72.92;93717.78;4991488;28;20486;-69
2021/04/19 00:58:24;;;;;;;44.50;23.42;;;;;;;6.34;73.27;93720.72;4996337;28;20575;-68
2021/04/19 01:00:49;;;;;;;43.10;23.15;;;;;;;6.32;73.03;93714.91;5012147;28;20051;-68
2021/04/19 01:03:15;;;;;;;52.03;23.75;;;;;;;6.32;73.40;93720.22;5001500;28;20034;-69
2021/04/19 01:05:41;;;;;;;48.70;24.17;;;;;;;6.35;72.30;93703.72;4992680;28;20023;-69
2021/04/19 01:08:07;;;;;;;51.35;26.13;;;;;;;6.22;72.60;93714.00;4992312;28;20037;-69
2021/04/19 01:10:33;;;;;;;53.42;24.80;;;;;;;6.16;72.96;93709.84;4992492;28;20481;-69
2021/04/19 01:12:59;;;;;;;51.20;23.05;;;;;;;6.11;73.31;93704.66;4992381;28;20060;-68
2021/04/19 01:15:24;;;;;;;54.58;24.88;;;;;;;6.07;73.53;93713.47;4992114;28;20068;-69
2021/04/19 01:17:50;;;;;;;47.60;23.55;;;;;;;6.00;73.54;93711.97;4992263;28;20097;-68
2021/04/19 01:20:21;;;;;;;50.45;24.58;;;;;;;5.91;74.05;93708.34;4992393;28;20018;-69
2021/04/19 01:22:47;;;;;;;48.85;24.73;;;;;;;5.94;74.22;93715.72;4992225;28;20406;-68
2021/04/19 01:25:19;;;;;;;55.70;25.10;;;;;;;5.90;74.32;93712.06;4992112;28;20038;-68
2021/04/19 01:27:45;;;;;;;69.15;27.92;;;;;;;5.94;74.04;93709.63;4991239;28;20032;-68
2021/04/19 01:30:13;;;;;;;62.22;25.88;;;;;;;5.94;74.52;93713.09;5008540;28;20030;-68
2021/04/19 01:32:39;;;;;;;55.08;25.13;;;;;;;5.92;74.28;93702.00;4998251;28;20486;-68
2021/04/19 01:35:20;;;;;;;55.22;24.45;;;;;;;5.87;74.52;93702.06;4990661;28;20041;-68
2021/04/19 01:37:54;;;;;;;60.17;28.97;;;;;;;5.93;74.26;93705.44;4991861;28;20039;-68
2021/04/19 01:40:19;;;;;;;58.20;26.33;;;;;;;5.85;74.60;93714.78;4989224;28;20039;-68
2021/04/19 01:42:45;;;;;;;56.65;26.38;;;;;;;5.86;74.81;93712.94;4991829;28;20029;-68
2021/04/19 01:45:13;;;;;;;57.53;25.63;;;;;;;5.86;75.33;93712.94;4991884;28;20034;-68
2021/04/19 01:47:38;;;;;;;57.17;25.70;;;;;;;5.88;75.23;93713.44;4987816;28;20425;-69
2021/04/19 01:50:24;;;;;;;72.38;26.75;;;;;;;5.90;75.10;93716.56;4991658;28;20031;-68
2021/04/19 01:52:50;;;;;;;66.28;26.42;;;;;;;5.89;75.44;93720.31;4991950;28;20058;-68
2021/04/19 01:55:19;;;;;;;68.45;27.33;;;;;;;5.88;75.46;93713.44;5005679;28;20057;-69
2021/04/19 01:57:57;;;;;;;67.13;27.13;;;;;;;5.94;75.24;93709.63;4999439;28;20029;-69
2021/04/19 02:00:25;;;;;;;63.60;27.15;;;;;;;5.99;74.69;93710.38;4990408;28;20504;-68
2021/04/19 02:02:55;;;;;;;68.05;26.20;;;;;;;5.96;74.80;93712.81;4991553;28;20022;-68
2021/04/19 02:05:32;;;;;;;69.78;25.60;;;;;;;5.95;74.91;93703.31;4989894;28;20038;-69
2021/04/19 02:08:40;;;;;;;73.30;27.65;;;;;;;5.99;74.89;93697.16;4991341;28;20053;-68
2021/04/19 02:11:24;;;;;;;71.10;28.25;;;;;;;5.98;75.04;93692.13;4990060;28;20033;-69
2021/04/19 02:13:57;;;;;;;66.10;27.42;;;;;;;5.99;74.99;93688.44;4991123;28;20103;-69
2021/04/19 02:16:39;;;;;;;56.63;24.75;;;;;;;6.02;74.55;93693.13;4991425;28;20402;-69
2021/04/19 02:19:20;;;;;;;63.83;24.77;;;;;;;6.02;74.61;93682.56;4991252;28;20117;-69
2021/04/19 02:21:50;;;;;;;78.13;25.92;;;;;;;5.97;74.62;93685.28;4990035;28;20571;-68
2021/04/19 02:24:22;;;;;;;72.70;25.52;;;;;;;5.96;74.41;93678.41;4990872;28;20030;-68
2021/04/19 02:27:02;;;;;;;63.67;24.02;;;;;;;5.91;74.45;93675.84;4989904;28;20544;-68
2021/04/19 02:29:36;;;;;;;47.80;23.13;;;;;;;5.89;73.86;93673.47;4990913;28;20037;-68
2021/04/19 02:32:06;;;;;;;55.85;23.55;;;;;;;5.82;74.41;93673.84;4990959;28;20069;-68
2021/04/19 02:34:34;;;;;;;47.35;21.35;;;;;;;5.71;74.67;93669.75;4989388;28;20034;-68
2021/04/19 02:37:02;;;;;;;55.95;20.60;;;;;;;5.72;74.67;93675.81;4989383;28;20034;-69
2021/04/19 02:39:32;;;;;;;49.15;20.50;;;;;;;5.70;74.91;93662.91;4990704;28;20474;-68
2021/04/19 02:41:59;;;;;;;43.50;19.02;;;;;;;5.70;74.67;93659.47;4990583;28;20030;-68
2021/04/19 02:44:26;;;;;;;51.00;20.15;;;;;;;5.67;75.08;93660.03;4990588;28;21445;-69
2021/04/19 02:46:54;;;;;;;45.38;19.80;;;;;;;5.64;74.87;93661.41;4990886;28;20401;-68
2021/04/19 02:49:31;;;;;;;49.00;21.48;;;;;;;5.66;75.01;93661.91;4990394;28;20101;-69
2021/04/19 02:52:02;;;;;;;43.78;19.10;;;;;;;5.67;74.42;93654.75;4989320;28;20027;-69
2021/04/19 02:54:30;;;;;;;57.78;19.85;;;;;;;5.59;75.04;93658.81;4990714;28;20448;-68
2021/04/19 02:56:57;;;;;;;37.70;19.65;;;;;;;5.55;74.95;93660.47;5003662;28;20108;-68
2021/04/19 02:59:25;;;;;;;33.35;18.05;;;;;;;5.59;75.25;93650.91;4998974;28;20030;-68
2021/04/19 03:01:55;;;;;;;50.17;19.50;;;;;;;5.57;74.82;93650.41;4990423;28;20100;-68
2021/04/19 03:04:24;;;;;;;37.13;19.48;;;;;;;5.55;75.10;93655.19;4990437;28;20037;-68
2021/04/19 03:06:53;;;;;;;47.92;18.92;;;;;;;5.50;75.00;93648.13;4990592;28;20054;-68
2021/04/19 03:09:20;;;;;;;37.78;17.55;;;;;;;5.51;74.98;93644.38;4990362;28;20033;-68
2021/04/19 03:11:51;;;;;;;44.90;18.45;;;;;;;5.50;75.19;93649.97;4998585;28;20036;-68
2021/04/19 03:14:19;;;;;;;43.33;18.80;;;;;;;5.51;75.05;93662.13;5008081;28;20084;-68
2021/04/19 03:16:54;;;;;;;44.20;19.30;;;;;;;5.51;75.13;93656.81;5009836;28;20033;-68
2021/04/19 03:19:25;;;;;;;36.85;18.40;;;;;;;5.50;75.16;93655.28;4990679;28;20026;-67
2021/04/19 03:21:52;;;;;;;50.55;19.35;;;;;;;5.47;75.31;93661.13;4990223;28;20034;-67
2021/04/19 03:24:18;;;;;;;44.88;20.45;;;;;;;5.46;75.58;93644.47;4988916;28;20026;-68
2021/04/19 03:26:45;;;;;;;48.00;19.75;;;;;;;5.48;75.50;93652.13;4990114;28;20039;-68
2021/04/19 03:29:11;;;;;;;54.47;20.98;;;;;;;5.51;75.41;93644.38;4990365;28;20498;-68
2021/04/19 03:31:53;;;;;;;45.85;21.15;;;;;;;5.52;75.51;93655.78;4990292;28;20109;-68
2021/04/19 03:34:24;;;;;;;51.42;22.52;;;;;;;5.47;75.39;93653.97;4990027;28;20049;-69
2021/04/19 03:36:54;;;;;;;64.50;22.55;;;;;;;5.45;75.65;93640.25;4990061;28;20022;-69
2021/04/19 03:39:21;;;;;;;54.92;23.08;;;;;;;5.46;75.92;93641.06;4989081;28;20108;-68
2021/04/19 03:41:50;;;;;;;68.85;26.75;;;;;;;5.46;75.82;93639.19;4989806;28;20438;-68
2021/04/19 03:44:22;;;;;;;59.38;24.92;;;;;;;5.47;75.80;93632.03;4990051;28;20037;-69
2021/04/19 03:46:50;;;;;;;50.03;23.70;;;;;;;5.46;75.96;93623.31;4989925;28;20037;-68
2021/04/19 03:49:26;;;;;;;54.50;24.67;;;;;;;5.50;75.88;93629.63;4995263;28;20029;-68
2021/04/19 03:51:56;;;;;;;60.15;24.05;;;;;;;5.54;75.38;93624.53;5008063;28;20018;-69
2021/04/19 03:54:25;;;;;;;57.22;23.45;;;;;;;5.59;75.55;93624.47;5008371;28;20053;-68
2021/04/19 03:56:51;;;;;;;55.42;23.63;;;;;;;5.61;75.46;93620.44;5009345;28;20113;-68
2021/04/19 03:59:19;;;;;;;59.10;25.15;;;;;;;5.67;75.48;93613.22;5008199;28;20029;-68
2021/04/19 04:01:46;;;;;;;52.70;25.40;;;;;;;5.68;75.66;93601.59;4993345;28;20029;-68
2021/04/19 04:04:13;;;;;;;58.72;25.17;;;;;;;5.74;75.67;93612.84;4988494;28;20037;-68
2021/04/19 04:06:41;;;;;;;58.90;24.83;;;;;;;5.79;75.55;93613.56;4989910;28;20094;-69
2021/04/19 04:09:07;;;;;;;53.38;23.88;;;;;;;5.83;75.44;93611.91;4988345;28;20034;-69
2021/04/19 04:11:33;;;;;;;58.65;24.67;;;;;;;5.89;75.16;93612.63;4989971;28;20026;-68
2021/04/19 04:13:59;;;;;;;54.60;23.83;;;;;;;5.93;75.10;93610.19;4989467;28;20073;-68
2021/04/19 04:16:24;;;;;;;54.97;22.40;;;;;;;6.00;74.60;93619.38;4988702;28;20117;-69
2021/04/19 04:18:50;;;;;;;47.35;21.02;;;;;;;6.06;74.63;93609.47;4992609;28;20037;-69
2021/04/19 04:21:16;;;;;;;52.45;22.33;;;;;;;6.07;74.67;93603.13;4993033;28;20023;-68
2021/04/19 04:23:43;;;;;;;53.97;22.85;;;;;;;6.14;74.53;93621.25;4993246;28;20437;-68
2021/04/19 04:26:08;;;;;;;47.47;23.35;;;;;;;6.20;74.52;93610.28;4991774;28;20383;-68
2021/04/19 04:28:34;;;;;;;63.60;26.73;;;;;;;6.25;74.49;93613.91;4993435;28;20117;-69
2021/04/19 04:30:59;;;;;;;54.95;26.55;;;;;;;6.30;74.21;93616.50;4992105;28;20026;-69
2021/04/19 04:33:24;;;;;;;59.80;26.73;;;;;;;6.34;74.07;93614.81;4992932;28;20030;-68
2021/04/19 04:35:50;;;;;;;57.38;25.90;;;;;;;6.36;74.10;93618.75;4995762;28;20034;-69
2021/04/19 04:38:15;;;;;;;55.40;25.25;;;;;;;6.42;73.74;93614.16;5010487;28;20095;-68
2021/04/19 04:40:41;;;;;;;54.25;24.90;;;;;;;6.45;73.63;93610.91;4988971;28;20110;-68
2021/04/19 04:43:14;;;;;;;50.83;22.83;;;;;;;6.49;73.60;93619.81;4992876;28;20084;-68
2021/04/19 04:45:41;;;;;;;54.25;25.63;;;;;;;6.50;73.27;93616.13;4992801;28;20053;-68
2021/04/19 04:48:11;;;;;;;51.78;23.27;;;;;;;6.49;73.25;93619.06;4992723;28;20034;-68
2021/04/19 04:50:45;;;;;;;52.63;23.00;;;;;;;6.51;72.93;93622.97;4992712;28;20026;-68
2021/04/19 04:53:18;;;;;;;44.72;22.17;;;;;;;6.56;72.96;93616.81;4992795;28;20038;-68
2021/04/19 04:55:47;;;;;;;43.28;20.85;;;;;;;6.57;72.73;93616.53;4992755;28;20033;-68
2021/04/19 04:58:14;;;;;;;36.85;20.45;;;;;;;6.59;72.72;93618.88;4992525;28;20041;-68
2021/04/19 05:00:41;;;;;;;43.25;21.13;;;;;;;6.56;72.48;93612.28;4994592;28;20026;-68
2021/04/19 05:03:09;;;;;;;36.97;19.45;;;;;;;6.60;72.29;93610.63;5011956;28;20022;-68
2021/04/19 05:05:35;;;;;;;32.70;16.88;;;;;;;6.60;72.33;93609.84;4999726;28;20089;-68
2021/04/19 05:08:01;;;;;;;29.48;16.38;;;;;;;6.61;71.97;93612.22;4991520;28;20041;-68
2021/04/19 05:10:27;;;;;;;29.83;16.10;;;;;;;6.63;72.11;93614.56;4991163;28;20489;-68
2021/04/19 05:12:53;;;;;;;32.83;16.77;;;;;;;6.62;71.98;93616.41;4988650;28;20073;-68
2021/04/19 05:15:18;;;;;;;32.47;16.55;;;;;;;6.65;72.05;93614.25;4999999;28;21405;-68
2021/04/19 05:17:45;;;;;;;28.73;16.52;;;;;;;6.65;71.82;93611.63;5007295;28;20028;-68
2021/04/19 05:20:12;;;;;;;30.63;16.98;;;;;;;6.68;71.78;93619.00;4998041;28;20500;-68
2021/04/19 05:22:38;;;;;;;30.40;16.75;;;;;;;6.70;71.92;93620.25;5005586;28;20064;-69
2021/04/19 05:25:06;;;;;;;31.20;17.10;;;;;;;6.69;71.95;93621.31;4992261;28;20061;-68
2021/04/19 05:27:32;;;;;;;35.42;18.27;;;;;;;6.58;72.63;93620.72;4994632;28;20057;-68
2021/04/19 05:29:58;;;;;;;29.48;16.85;;;;;;;6.57;72.61;93626.31;5009280;28;20030;-68
2021/04/19 05:32:25;;;;;;;30.25;15.32;;;;;;;6.59;72.25;93616.22;5011652;28;20025;-68
2021/04/19 05:34:51;;;;;;;31.48;17.05;;;;;;;6.55;72.20;93621.31;5004121;28;20073;-68
2021/04/19 05:37:18;;;;;;;31.55;17.80;;;;;;;6.56;72.29;93617.59;4990720;28;20482;-68
2021/04/19 05:39:44;;;;;;;34.28;18.40;;;;;;;6.59;72.47;93618.88;5012417;28;20202;-69
2021/04/19 05:42:13;;;;;;;33.92;17.27;;;;;;;6.58;72.49;93626.03;4991831;28;20517;-68
2021/04/19 05:44:38;;;;;;;35.17;18.90;;;;;;;6.61;71.70;93627.31;5006382;28;20504;-69
2021/04/19 05:47:04;;;;;;;33.38;17.02;;;;;;;6.57;71.82;93628.97;5011483;28;20048;-69
2021/04/19 05:49:29;;;;;;;31.85;17.27;;;;;;;6.57;72.60;93618.38;4994168;28;20046;-68
2021/04/19 05:51:58;;;;;;;38.38;18.02;;;;;;;6.57;72.71;93615.72;5004690;28;20026;-68
2021/04/19 05:54:24;;;;;;;36.55;18.60;;;;;;;6.57;72.74;93619.19;4994660;28;20188;-69
2021/04/19 05:57:08;;;;;;;37.92;18.63;;;;;;;6.59;72.78;93611.72;4996854;28;20022;-68
2021/04/19 05:59:55;;;;;;;32.38;18.80;;;;;;;6.53;73.02;93612.88;4990021;28;20026;-68
2021/04/19 06:02:34;;;;;;;31.38;17.25;;;;;;;6.52;73.14;93608.66;4991638;28;20109;-68
2021/04/19 06:05:07;;;;;;;23.50;13.85;;;;;;;6.53;72.96;93607.56;4989768;28;20033;-69
2021/04/19 06:07:44;;;;;;;23.70;14.02;;;;;;;6.55;72.64;93610.72;5003433;28;20033;-68
2021/04/19 06:10:36;;;;;;;30.05;14.88;;;;;;;6.59;72.47;93606.44;4991210;28;20116;-69
2021/04/19 06:13:03;;;;;;;27.77;13.68;;;;;;;6.66;72.30;93605.25;4990976;28;20552;-68
2021/04/19 06:15:29;;;;;;;24.38;12.88;;;;;;;6.73;71.98;93600.34;4990984;28;20574;-68
2021/04/19 06:17:58;;;;;;;23.55;13.20;;;;;;;6.77;72.35;93599.44;4989319;28;20105;-68
2021/04/19 06:20:24;;;;;;;27.15;13.73;;;;;;;6.80;72.26;93590.16;4989670;28;20054;-67
2021/04/19 06:22:52;;;;;;;23.55;13.38;;;;;;;6.83;72.48;93608.09;4990022;28;20060;-68
2021/04/19 06:25:19;;;;;;;21.10;12.10;;;;;;;6.86;72.06;93599.56;5010520;28;20028;-68
2021/04/19 06:27:45;;;;;;;19.55;12.38;;;;;;;6.90;72.09;93591.78;5010264;28;20472;-68
2021/04/19 06:30:21;;;;;;;20.00;11.73;;;;;;;6.95;71.96;93591.69;5009123;28;20117;-68
2021/04/19 06:32:50;;;;;;;22.30;12.95;;;;;;;6.99;71.97;93593.44;5009155;28;20036;-68
2021/04/19 06:35:16;;;;;;;25.20;14.23;;;;;;;6.99;71.78;93585.50;4989503;28;20470;-69
2021/04/19 06:37:42;;;;;;;23.10;13.40;;;;;;;6.96;72.19;93590.59;4990780;28;20065;-69
2021/04/19 06:40:09;;;;;;;27.27;13.77;;;;;;;7.03;72.05;93588.34;4990451;28;20057;-70
2021/04/19 06:42:35;;;;;;;20.60;12.73;;;;;;;7.04;72.09;93587.25;4990775;28;20038;-68
2021/04/19 06:45:03;;;;;;;28.20;14.90;;;;;;;7.07;72.13;93591.19;4987546;28;20022;-69
2021/04/19 06:47:31;;;;;;;23.77;14.27;;;;;;;6.99;72.67;93585.50;4988896;28;20109;-68
2021/04/19 06:49:57;;;;;;;29.75;16.50;;;;;;;7.07;72.27;93588.53;4995159;28;20036;-70
2021/04/19 06:52:23;;;;;;;22.40;13.77;;;;;;;7.12;72.00;93583.13;5009773;28;20040;-69
2021/04/19 06:54:49;;;;;;;24.83;12.98;;;;;;;7.11;71.99;93585.00;5001226;28;20038;-71
2021/04/19 06:57:17;;;;;;;24.58;12.23;;;;;;;7.11;71.90;93584.22;4990102;28;20137;-68
2021/04/19 06:59:44;;;;;;;22.23;13.90;;;;;;;7.10;71.83;93588.72;4989220;28;20041;-69
2021/04/19 07:02:24;;;;;;;21.80;12.68;;;;;;;7.11;71.47;93587.66;4989739;28;20410;-68
2021/04/19 07:04:55;;;;;;;22.67;13.60;;;;;;;7.14;71.50;93594.22;4993576;28;20502;-68
2021/04/19 07:07:30;;;;;;;23.50;13.48;;;;;;;7.15;71.24;93593.91;4988660;28;20034;-68
2021/04/19 07:09:59;;;;;;;25.45;14.38;;;;;;;7.17;71.32;93593.63;4989783;28;20499;-69
2021/04/19 07:12:25;;;;;;;23.88;14.55;;;;;;;7.18;71.57;93597.84;4986741;28;20052;-68
2021/04/19 07:14:54;;;;;;;26.02;14.70;;;;;;;7.17;71.68;93599.72;4988545;28;20043;-68
2021/04/19 07:17:19;;;;;;;28.17;15.68;;;;;;;7.18;71.82;93595.19;4989696;28;20026;-68
2021/04/19 07:19:45;;;;;;;28.88;15.98;;;;;;;7.18;71.86;93595.97;4989830;28;20025;-69
2021/04/19 07:22:15;;;;;;;29.50;17.40;;;;;;;7.20;72.19;93593.03;4988590;28;20026;-69
2021/04/19 07:24:41;;;;;;;36.45;18.48;;;;;;;7.21;72.33;93599.91;4999574;28;20525;-68
2021/04/19 07:27:11;;;;;;;37.15;18.55;;;;;;;7.21;72.25;93591.94;5009827;28;20030;-69
2021/04/19 07:29:36;;;;;;;29.00;15.93;;;;;;;7.23;72.61;93593.22;4991088;28;20042;-69
2021/04/19 07:32:02;;;;;;;31.30;16.85;;;;;;;7.23;72.55;93590.56;5003518;28;20024;-70
2021/04/19 07:34:29;;;;;;;32.10;16.73;;;;;;;7.25;72.71;93587.63;5007955;28;20057;-69
2021/04/19 07:37:03;;;;;;;28.58;16.77;;;;;;;7.30;72.62;93584.84;5009328;28;20026;-68
2021/04/19 07:39:31;;;;;;;40.60;18.80;;;;;;;7.33;72.72;93575.53;5009336;28;20029;-67
2021/04/19 07:41:58;;;;;;;44.03;19.73;;;;;;;7.35;72.51;93583.97;4991888;28;20496;-68
2021/04/19 07:44:47;;;;;;;33.13;19.27;;;;;;;7.37;72.66;93577.28;4988393;28;20421;-69
2021/04/19 07:47:42;;;;;;;25.75;13.13;;;;;;;7.35;71.60;93574.13;5002473;28;20113;-68
2021/04/19 07:50:23;;;;;;;19.67;11.05;;;;;;;7.36;71.00;93559.78;4995838;28;20038;-68
2021/04/19 07:52:56;;;;;;;16.63;8.88;;;;;;;7.36;69.97;93548.41;4991176;28;20022;-68
2021/04/19 07:55:26;;;;;;;14.98;7.75;;;;;;;7.35;70.16;93554.81;4993658;28;20030;-67
2021/04/19 07:57:52;;;;;;;15.32;6.82;;;;;;;7.43;69.75;93556.75;4993398;28;20097;-68
2021/04/19 08:00:25;;;;;;;12.85;6.30;;;;;;;7.43;69.56;93549.56;4992044;28;20022;-68
2021/04/19 08:02:59;;;;;;;14.88;6.35;;;;;;;7.45;69.34;93549.28;4991552;28;20026;-67
2021/04/19 08:05:30;;;;;;;9.27;5.57;;;;;;;7.44;68.47;93551.13;4993388;28;20057;-67
2021/04/19 08:07:56;;;;;;;9.98;5.07;;;;;;;7.45;68.97;93554.56;4991757;28;20034;-67
2021/04/19 08:10:21;;;;;;;7.60;4.45;;;;;;;7.50;68.78;93553.66;5006829;28;20035;-68
2021/04/19 08:12:48;;;;;;;7.43;4.00;;;;;;;7.53;68.42;93553.03;5007325;28;20030;-66
2021/04/19 08:15:19;;;;;;;10.07;4.63;;;;;;;7.50;68.65;93545.72;5012858;28;20141;-66
2021/04/19 08:17:45;;;;;;;8.00;3.35;;;;;;;7.54;68.51;93549.31;5012402;28;20022;-67
2021/04/19 08:20:12;;;;;;;5.30;3.03;;;;;;;7.58;68.06;93550.28;4992392;28;20063;-67
2021/04/19 08:22:39;;;;;;;4.50;2.58;;;;;;;7.57;67.39;93552.16;5012377;28;20504;-67
2021/04/19 08:25:18;;;;;;;4.10;2.50;;;;;;;7.62;66.50;93543.28;5011009;28;20065;-67
2021/04/19 08:28:05;;;;;;;5.70;2.50;;;;;;;7.68;66.54;93546.63;5011058;28;20045;-67
2021/04/19 08:30:31;;;;;;;5.60;2.40;;;;;;;7.68;66.25;93544.75;5011135;28;20168;-67
2021/04/19 08:32:58;;;;;;;6.78;2.65;;;;;;;7.69;65.75;93538.34;5010753;28;20540;-66
2021/04/19 08:35:28;;;;;;;2.90;1.67;;;;;;;7.71;65.30;93533.50;5010918;28;20087;-66
2021/04/19 08:37:56;;;;;;;4.15;1.70;;;;;;;7.72;64.85;93540.41;4996137;28;20073;-68
2021/04/19 08:40:24;;;;;;;2.70;1.60;;;;;;;7.76;64.92;93535.28;4992609;28;20056;-66
2021/04/19 08:42:51;;;;;;;4.57;2.00;;;;;;;7.79;64.56;93524.81;5007735;28;20037;-67
2021/04/19 08:45:17;;;;;;;4.65;2.00;;;;;;;7.83;64.85;93525.78;5008357;28;20633;-68
2021/04/19 08:47:44;;;;;;;8.05;2.97;;;;;;;7.89;65.36;93517.72;4992568;28;20027;-67
2021/04/19 08:50:16;;;;;;;6.10;2.88;;;;;;;7.98;65.94;93518.56;4990998;28;20049;-67
2021/04/19 08:52:42;;;;;;;8.82;3.42;;;;;;;8.02;65.81;93519.50;4991025;28;20029;-67
2021/04/19 08:55:08;;;;;;;11.65;4.20;;;;;;;8.06;65.87;93517.81;4990764;28;20026;-69
2021/04/19 08:57:34;;;;;;;10.20;3.63;;;;;;;8.14;65.95;93521.56;4992444;28;20474;-67
2021/04/19 08:59:59;;;;;;;4.45;2.47;;;;;;;8.23;65.70;93515.22;4992364;28;20057;-67
2021/04/19 09:02:25;;;;;;;7.70;2.95;;;;;;;8.31;65.68;93518.22;4992070;28;20523;-67
2021/04/19 09:05:05;;;;;;;6.38;2.72;;;;;;;8.39;65.52;93517.47;4992230;28;20461;-66
2021/04/19 09:07:32;;;;;;;5.28;2.92;;;;;;;8.41;65.84;93513.44;4994974;28;20787;-67
2021/04/19 09:09:57;;;;;;;9.77;3.47;;;;;;;8.51;65.22;93517.72;5003312;28;20037;-66
2021/04/19 09:12:26;;;;;;;6.90;2.70;;;;;;;8.63;64.84;93509.16;5001420;28;20532;-67
2021/04/19 09:15:07;;;;;;;5.90;2.67;;;;;;;8.79;64.11;93510.28;5011470;28;20038;-67
2021/04/19 09:17:32;;;;;;;4.45;2.28;;;;;;;8.88;64.55;93520.16;4999891;28;20533;-67
2021/04/19 09:19:59;;;;;;;5.97;2.42;;;;;;;8.93;65.12;93520.75;4992051;28;20026;-67
2021/04/19 09:22:26;;;;;;;10.23;2.80;;;;;;;8.98;64.81;93520.63;4992715;28;20034;-66
2021/04/19 09:25:13;;;;;;;4.05;2.15;;;;;;;9.03;63.95;93517.03;5011639;28;20029;-67
2021/04/19 09:27:49;;;;;;;4.65;2.33;;;;;;;9.03;64.02;93517.81;5010030;28;20048;-68
2021/04/19 09:30:27;;;;;;;8.18;2.35;;;;;;;9.02;63.84;93502.97;4990824;28;20033;-67
2021/04/19 09:33:04;;;;;;;5.20;3.05;;;;;;;9.03;63.75;93509.06;4995090;28;20285;-69
2021/04/19 09:35:39;;;;;;;6.07;3.63;;;;;;;9.11;63.94;93510.16;4991444;28;20030;-68
2021/04/19 09:38:06;;;;;;;8.45;3.70;;;;;;;9.18;63.00;93511.25;4990132;28;20133;-68
2021/04/19 09:40:46;;;;;;;16.23;5.88;;;;;;;9.32;62.56;93503.13;4991236;28;20022;-68
2021/04/19 09:43:11;;;;;;;8.18;3.30;;;;;;;9.34;62.50;93492.16;4994249;28;20564;-68
2021/04/19 09:45:46;;;;;;;4.13;2.30;;;;;;;9.36;61.79;93504.06;5010654;28;20029;-68
2021/04/19 09:48:27;;;;;;;15.65;4.43;;;;;;;9.42;61.52;93486.06;5010834;28;20026;-68
2021/04/19 09:50:54;;;;;;;13.02;5.40;;;;;;;9.44;61.65;93497.97;4999835;28;20511;-69
2021/04/19 09:53:19;;;;;;;4.65;2.72;;;;;;;9.50;61.28;93498.56;5009376;28;20045;-68
2021/04/19 09:55:45;;;;;;;6.07;2.08;;;;;;;9.58;61.09;93491.69;5010548;28;20025;-68
2021/04/19 09:58:11;;;;;;;3.17;1.80;;;;;;;9.61;61.52;93488.41;5009265;28;20030;-69
2021/04/19 10:00:37;;;;;;;8.88;2.00;;;;;;;9.57;60.99;93482.16;5010383;28;20057;-69
2021/04/19 10:03:02;;;;;;;3.70;2.05;;;;;;;9.64;59.20;93493.84;5008923;28;20060;-68
2021/04/19 10:05:29;;;;;;;5.28;2.53;;;;;;;9.70;59.93;93478.50;5009362;28;20022;-67
2021/04/19 10:08:04;;;;;;;4.45;2.67;;;;;;;9.70;60.08;93486.50;4993229;28;20030;-67
2021/04/19 10:10:31;;;;;;;4.03;2.20;;;;;;;9.79;60.72;93483.81;5001480;28;20026;-67
2021/04/19 10:12:56;;;;;;;3.90;1.92;;;;;;;9.92;60.59;93479.41;5004741;28;20022;-68
2021/04/19 10:15:24;;;;;;;4.38;1.88;;;;;;;10.06;61.02;93471.22;5002969;28;20057;-67
2021/04/19 10:17:50;;;;;;;3.78;1.90;;;;;;;10.21;60.83;93474.13;5006071;28;20116;-68
2021/04/19 10:20:22;;;;;;;7.25;2.38;;;;;;;10.41;59.56;93477.22;5007045;28;20397;-68
2021/04/19 10:23:06;;;;;;;5.38;2.92;;;;;;;10.67;58.42;93463.00;5000453;28;20033;-67
2021/04/19 10:25:34;;;;;;;4.70;2.88;;;;;;;10.87;58.06;93472.91;4996115;28;20090;-68
2021/04/19 10:27:59;;;;;;;3.63;2.30;;;;;;;10.96;57.47;93467.50;5006157;28;20441;-68
2021/04/19 10:30:25;;;;;;;4.65;1.70;;;;;;;11.13;56.45;93454.03;5007676;28;20030;-67
2021/04/19 10:32:51;;;;;;;2.78;1.67;;;;;;;11.23;56.32;93458.19;5004828;28;20030;-67
2021/04/19 10:35:41;;;;;;;3.63;1.90;;;;;;;11.53;56.87;93460.78;5007381;28;20504;-67
2021/04/19 10:38:06;;;;;;;5.00;2.17;;;;;;;11.72;55.34;93461.03;5008996;28;20033;-69
2021/04/19 10:40:32;;;;;;;3.85;2.15;;;;;;;11.91;55.20;93449.13;4998932;28;20040;-68
2021/04/19 10:43:08;;;;;;;3.30;1.60;;;;;;;12.13;54.66;93461.28;5000800;28;20375;-68
2021/04/19 10:45:33;;;;;;;4.53;1.63;;;;;;;12.34;52.68;93447.84;5000662;28;20180;-69
2021/04/19 10:48:21;;;;;;;5.35;1.40;;;;;;;12.53;52.48;93444.59;5004741;28;20108;-68
2021/04/19 10:50:56;;;;;;;4.13;2.13;;;;;;;12.63;52.60;93449.50;4989990;28;20049;-67
2021/04/19 10:53:35;;;;;;;4.07;2.58;;;;;;;12.59;53.47;93445.94;5003869;28;20405;-67
2021/04/19 10:56:00;;;;;;;4.80;2.13;;;;;;;12.49;52.58;93447.16;5002589;28;20105;-70
2021/04/19 10:58:29;;;;;;;5.43;2.42;;;;;;;12.08;52.82;93440.91;4992870;28;20033;-68
2021/04/19 11:00:55;;;;;;;3.75;2.70;;;;;;;11.90;53.56;93448.31;4995717;28;20027;-68
2021/04/19 11:03:21;;;;;;;4.28;2.55;;;;;;;11.71;54.00;93430.13;5005783;28;20393;-68
2021/04/19 11:05:47;;;;;;;4.28;2.70;;;;;;;11.41;55.29;93427.59;5004061;28;20042;-70
2021/04/19 11:08:12;;;;;;;6.03;3.28;;;;;;;11.18;56.45;93434.41;4997673;28;20068;-71
2021/04/19 11:10:38;;;;;;;6.07;3.72;;;;;;;11.03;56.96;93430.41;5005360;28;20505;-66
2021/04/19 11:13:09;;;;;;;5.63;3.28;;;;;;;11.03;57.05;93433.88;5000592;28;20030;-66
2021/04/19 11:15:47;;;;;;;12.95;3.75;;;;;;;10.94;57.33;93437.72;5001541;28;20056;-67
2021/04/19 11:18:19;;;;;;;4.53;2.92;;;;;;;10.89;57.85;93436.03;4993290;28;20037;-68
2021/04/19 11:20:45;;;;;;;4.88;2.92;;;;;;;10.84;57.61;93436.97;5002735;28;20030;-66
2021/04/19 11:23:28;;;;;;;4.57;2.53;;;;;;;10.39;56.77;93436.81;5009428;28;20069;-68
2021/04/19 11:25:59;;;;;;;5.75;2.50;;;;;;;10.36;57.75;93432.91;4999896;28;20034;-66
2021/04/19 11:28:30;;;;;;;4.68;2.50;;;;;;;10.35;58.33;93438.53;5000974;28;20042;-68
2021/04/19 11:30:56;;;;;;;3.75;2.45;;;;;;;10.26;58.05;93433.25;4993874;28;20622;-67
2021/04/19 11:33:26;;;;;;;6.10;2.90;;;;;;;10.20;58.90;93429.19;5002474;28;20485;-67
2021/04/19 11:36:05;;;;;;;5.97;2.88;;;;;;;10.15;59.14;93426.69;4992462;28;20033;-67
2021/04/19 11:38:31;;;;;;;6.60;4.10;;;;;;;9.98;59.82;93425.66;4993501;28;20460;-67
2021/04/19 11:41:08;;;;;;;6.25;3.58;;;;;;;9.92;60.24;93423.50;4992327;28;20117;-67